sensor_id;sensor_type;location;lat;lon;timestamp;pressure;altitude;pressure_sealevel;temperature;humidity
76728;BME280;65652;53.132;18.026;2023-03-31T00:00:06;99984.71;;;9.67;82.60
76728;BME280;65652;53.132;18.026;2023-03-31T00:02:56;99984.05;;;9.64;82.70
76728;BME280;65652;53.132;18.026;2023-03-31T00:05:24;99980.11;;;9.61;82.75
76728;BME280;65652;53.132;18.026;2023-03-31T00:07:55;99981.59;;;9.59;82.53
76728;BME280;65652;53.132;18.026;2023-03-31T00:10:30;99976.82;;;9.55;83.00
76728;BME280;65652;53.132;18.026;2023-03-31T00:13:01;99975.23;;;9.53;83.11
76728;BME280;65652;53.132;18.026;2023-03-31T00:15:27;99977.10;;;9.52;82.89
76728;BME280;65652;53.132;18.026;2023-03-31T00:17:54;99979.90;;;9.51;83.20
76728;BME280;65652;53.132;18.026;2023-03-31T00:20:25;99974.19;;;9.49;83.03
76728;BME280;65652;53.132;18.026;2023-03-31T00:22:51;99966.62;;;9.49;82.99
76728;BME280;65652;53.132;18.026;2023-03-31T00:25:19;99960.27;;;9.49;83.00
76728;BME280;65652;53.132;18.026;2023-03-31T00:27:45;99961.36;;;9.49;83.25
76728;BME280;65652;53.132;18.026;2023-03-31T00:30:15;99964.53;;;9.49;82.88
76728;BME280;65652;53.132;18.026;2023-03-31T00:32:41;99964.61;;;9.50;82.98
76728;BME280;65652;53.132;18.026;2023-03-31T00:35:07;99959.66;;;9.50;83.20
76728;BME280;65652;53.132;18.026;2023-03-31T00:37:34;99963.80;;;9.51;83.11
76728;BME280;65652;53.132;18.026;2023-03-31T00:40:00;99961.89;;;9.51;83.30
76728;BME280;65652;53.132;18.026;2023-03-31T00:42:27;99960.23;;;9.52;83.56
76728;BME280;65652;53.132;18.026;2023-03-31T00:47:44;99957.09;;;9.53;83.35
76728;BME280;65652;53.132;18.026;2023-03-31T00:50:15;99953.48;;;9.54;83.62
76728;BME280;65652;53.132;18.026;2023-03-31T00:52:54;99960.16;;;9.56;83.81
76728;BME280;65652;53.132;18.026;2023-03-31T00:55:26;99950.87;;;9.57;83.70
76728;BME280;65652;53.132;18.026;2023-03-31T00:57:56;99953.31;;;9.59;83.57
76728;BME280;65652;53.132;18.026;2023-03-31T01:00:23;99949.27;;;9.61;83.63
76728;BME280;65652;53.132;18.026;2023-03-31T01:02:54;99940.69;;;9.62;83.62
76728;BME280;65652;53.132;18.026;2023-03-31T01:05:28;99932.42;;;9.64;83.85
76728;BME280;65652;53.132;18.026;2023-03-31T01:07:58;99925.31;;;9.64;83.47
76728;BME280;65652;53.132;18.026;2023-03-31T01:10:25;99924.67;;;9.66;83.07
76728;BME280;65652;53.132;18.026;2023-03-31T01:12:53;99921.02;;;9.65;83.14
76728;BME280;65652;53.132;18.026;2023-03-31T01:15:21;99919.52;;;9.66;83.27
76728;BME280;65652;53.132;18.026;2023-03-31T01:17:47;99918.91;;;9.67;82.97
76728;BME280;65652;53.132;18.026;2023-03-31T01:20:29;99922.44;;;9.67;83.21
76728;BME280;65652;53.132;18.026;2023-03-31T01:31:40;99905.63;;;9.68;83.08
76728;BME280;65652;53.132;18.026;2023-03-31T01:37:28;99900.42;;;9.67;82.75
76728;BME280;65652;53.132;18.026;2023-03-31T01:40:28;99901.20;;;9.66;82.73
76728;BME280;65652;53.132;18.026;2023-03-31T01:43:40;99910.61;;;9.64;83.10
76728;BME280;65652;53.132;18.026;2023-03-31T01:46:30;99908.19;;;9.61;82.91
76728;BME280;65652;53.132;18.026;2023-03-31T01:49:23;99908.73;;;9.59;83.11
76728;BME280;65652;53.132;18.026;2023-03-31T01:57:43;99897.96;;;9.52;83.04
76728;BME280;65652;53.132;18.026;2023-03-31T02:00:18;99895.64;;;9.49;83.18
76728;BME280;65652;53.132;18.026;2023-03-31T02:03:02;99894.52;;;9.46;82.87
76728;BME280;65652;53.132;18.026;2023-03-31T02:05:35;99895.13;;;9.43;82.70
76728;BME280;65652;53.132;18.026;2023-03-31T02:08:05;99892.64;;;9.40;82.93
76728;BME280;65652;53.132;18.026;2023-03-31T02:10:33;99893.21;;;9.36;83.13
76728;BME280;65652;53.132;18.026;2023-03-31T02:13:02;99891.30;;;9.32;83.09
76728;BME280;65652;53.132;18.026;2023-03-31T02:15:33;99889.73;;;9.28;83.03
76728;BME280;65652;53.132;18.026;2023-03-31T02:18:06;99888.52;;;9.24;82.88
76728;BME280;65652;53.132;18.026;2023-03-31T02:20:41;99887.33;;;9.20;83.06
76728;BME280;65652;53.132;18.026;2023-03-31T02:23:10;99887.50;;;9.16;83.06
76728;BME280;65652;53.132;18.026;2023-03-31T02:25:44;99888.31;;;9.13;82.95
76728;BME280;65652;53.132;18.026;2023-03-31T02:28:18;99896.08;;;9.10;82.95
76728;BME280;65652;53.132;18.026;2023-03-31T02:33:15;99898.17;;;9.02;82.92
76728;BME280;65652;53.132;18.026;2023-03-31T02:35:41;99895.11;;;8.99;82.84
76728;BME280;65652;53.132;18.026;2023-03-31T02:38:08;99894.98;;;8.97;82.85
76728;BME280;65652;53.132;18.026;2023-03-31T02:40:34;99890.34;;;8.94;83.02
76728;BME280;65652;53.132;18.026;2023-03-31T02:43:00;99890.85;;;8.90;83.02
76728;BME280;65652;53.132;18.026;2023-03-31T02:45:41;99896.23;;;8.87;83.03
76728;BME280;65652;53.132;18.026;2023-03-31T02:48:35;99898.63;;;8.82;82.88
76728;BME280;65652;53.132;18.026;2023-03-31T02:57:21;99894.90;;;8.68;82.93
76728;BME280;65652;53.132;18.026;2023-03-31T03:00:08;99886.23;;;8.64;82.95
76728;BME280;65652;53.132;18.026;2023-03-31T03:03:05;99882.89;;;8.61;82.86
76728;BME280;65652;53.132;18.026;2023-03-31T03:06:28;99877.58;;;8.57;82.78
76728;BME280;65652;53.132;18.026;2023-03-31T03:11:51;99870.46;;;8.52;82.74
76728;BME280;65652;53.132;18.026;2023-03-31T03:14:31;99869.45;;;8.50;82.75
76728;BME280;65652;53.132;18.026;2023-03-31T03:17:05;99870.00;;;8.46;82.90
76728;BME280;65652;53.132;18.026;2023-03-31T03:19:33;99869.19;;;8.43;82.90
76728;BME280;65652;53.132;18.026;2023-03-31T03:21:59;99867.58;;;8.40;82.93
76728;BME280;65652;53.132;18.026;2023-03-31T03:24:26;99866.49;;;8.38;82.82
76728;BME280;65652;53.132;18.026;2023-03-31T03:26:54;99871.48;;;8.37;82.81
76728;BME280;65652;53.132;18.026;2023-03-31T03:29:21;99872.64;;;8.36;82.80
76728;BME280;65652;53.132;18.026;2023-03-31T03:31:47;99876.66;;;8.37;82.78
76728;BME280;65652;53.132;18.026;2023-03-31T03:34:13;99872.11;;;8.36;82.78
76728;BME280;65652;53.132;18.026;2023-03-31T03:36:39;99871.02;;;8.37;82.69
76728;BME280;65652;53.132;18.026;2023-03-31T03:39:06;99866.41;;;8.37;82.72
76728;BME280;65652;53.132;18.026;2023-03-31T03:41:32;99862.25;;;8.37;82.81
76728;BME280;65652;53.132;18.026;2023-03-31T03:43:59;99866.58;;;8.36;82.84
76728;BME280;65652;53.132;18.026;2023-03-31T03:46:26;99862.98;;;8.34;82.71
76728;BME280;65652;53.132;18.026;2023-03-31T03:48:52;99864.11;;;8.34;82.76
76728;BME280;65652;53.132;18.026;2023-03-31T03:51:18;99862.58;;;8.33;82.63
76728;BME280;65652;53.132;18.026;2023-03-31T03:53:45;99860.30;;;8.31;82.75
76728;BME280;65652;53.132;18.026;2023-03-31T03:56:11;99864.66;;;8.29;82.78
76728;BME280;65652;53.132;18.026;2023-03-31T03:58:37;99868.33;;;8.28;82.96
76728;BME280;65652;53.132;18.026;2023-03-31T04:01:03;99869.47;;;8.27;82.82
76728;BME280;65652;53.132;18.026;2023-03-31T04:03:29;99862.14;;;8.27;82.95
76728;BME280;65652;53.132;18.026;2023-03-31T04:05:56;99855.16;;;8.26;82.89
76728;BME280;65652;53.132;18.026;2023-03-31T04:08:22;99856.25;;;8.25;82.94
76728;BME280;65652;53.132;18.026;2023-03-31T04:10:49;99849.17;;;8.26;82.77
76728;BME280;65652;53.132;18.026;2023-03-31T04:13:19;99848.14;;;8.25;82.77
76728;BME280;65652;53.132;18.026;2023-03-31T04:15:45;99845.15;;;8.26;82.79
76728;BME280;65652;53.132;18.026;2023-03-31T04:18:12;99844.41;;;8.26;82.69
76728;BME280;65652;53.132;18.026;2023-03-31T04:20:58;99843.38;;;8.26;82.67
76728;BME280;65652;53.132;18.026;2023-03-31T04:23:35;99842.36;;;8.25;82.83
76728;BME280;65652;53.132;18.026;2023-03-31T04:26:08;99838.27;;;8.26;82.87
76728;BME280;65652;53.132;18.026;2023-03-31T04:28:35;99841.30;;;8.25;82.67
76728;BME280;65652;53.132;18.026;2023-03-31T04:31:03;99838.11;;;8.26;82.91
76728;BME280;65652;53.132;18.026;2023-03-31T04:33:31;99834.55;;;8.26;82.73
76728;BME280;65652;53.132;18.026;2023-03-31T04:35:59;99836.83;;;8.26;82.86
76728;BME280;65652;53.132;18.026;2023-03-31T04:38:32;99834.81;;;8.27;82.74
76728;BME280;65652;53.132;18.026;2023-03-31T04:40:58;99833.38;;;8.28;82.98
76728;BME280;65652;53.132;18.026;2023-03-31T04:43:24;99832.95;;;8.28;82.88
76728;BME280;65652;53.132;18.026;2023-03-31T04:45:50;99836.34;;;8.30;82.96
76728;BME280;65652;53.132;18.026;2023-03-31T04:48:17;99835.50;;;8.31;82.92
76728;BME280;65652;53.132;18.026;2023-03-31T04:50:45;99833.60;;;8.32;82.90
76728;BME280;65652;53.132;18.026;2023-03-31T04:53:11;99830.94;;;8.35;82.87
76728;BME280;65652;53.132;18.026;2023-03-31T04:55:37;99830.91;;;8.37;83.01
76728;BME280;65652;53.132;18.026;2023-03-31T04:58:03;99828.83;;;8.38;83.06
76728;BME280;65652;53.132;18.026;2023-03-31T05:00:30;99825.50;;;8.40;82.92
76728;BME280;65652;53.132;18.026;2023-03-31T05:02:56;99826.69;;;8.42;82.87
76728;BME280;65652;53.132;18.026;2023-03-31T05:05:24;99822.69;;;8.46;82.91
76728;BME280;65652;53.132;18.026;2023-03-31T05:07:50;99821.98;;;8.48;82.90
76728;BME280;65652;53.132;18.026;2023-03-31T05:10:16;99820.93;;;8.49;82.96
76728;BME280;65652;53.132;18.026;2023-03-31T05:12:42;99815.09;;;8.52;83.15
76728;BME280;65652;53.132;18.026;2023-03-31T05:15:09;99818.05;;;8.54;83.10
76728;BME280;65652;53.132;18.026;2023-03-31T05:17:35;99815.20;;;8.56;83.19
76728;BME280;65652;53.132;18.026;2023-03-31T05:20:05;99810.36;;;8.59;83.17
76728;BME280;65652;53.132;18.026;2023-03-31T05:22:34;99809.02;;;8.62;83.08
76728;BME280;65652;53.132;18.026;2023-03-31T05:25:00;99803.05;;;8.62;83.20
76728;BME280;65652;53.132;18.026;2023-03-31T05:27:26;99801.77;;;8.64;83.26
76728;BME280;65652;53.132;18.026;2023-03-31T05:29:52;99801.95;;;8.66;83.09
76728;BME280;65652;53.132;18.026;2023-03-31T05:32:18;99800.14;;;8.68;83.16
76728;BME280;65652;53.132;18.026;2023-03-31T05:34:44;99800.45;;;8.71;83.06
76728;BME280;65652;53.132;18.026;2023-03-31T05:37:11;99800.52;;;8.74;83.35
76728;BME280;65652;53.132;18.026;2023-03-31T05:39:37;99798.79;;;8.77;83.34
76728;BME280;65652;53.132;18.026;2023-03-31T05:42:03;99794.15;;;8.81;83.22
76728;BME280;65652;53.132;18.026;2023-03-31T05:44:30;99794.41;;;8.86;83.25
76728;BME280;65652;53.132;18.026;2023-03-31T05:46:56;99793.35;;;8.90;83.20
76728;BME280;65652;53.132;18.026;2023-03-31T05:49:23;99792.14;;;8.93;83.09
76728;BME280;65652;53.132;18.026;2023-03-31T05:51:49;99788.77;;;8.97;82.96
76728;BME280;65652;53.132;18.026;2023-03-31T05:54:15;99786.48;;;9.01;82.93
76728;BME280;65652;53.132;18.026;2023-03-31T05:56:41;99788.26;;;9.04;83.03
76728;BME280;65652;53.132;18.026;2023-03-31T05:59:07;99789.64;;;9.08;83.13
76728;BME280;65652;53.132;18.026;2023-03-31T06:01:34;99786.35;;;9.11;82.90
76728;BME280;65652;53.132;18.026;2023-03-31T06:04:00;99785.30;;;9.15;82.89
76728;BME280;65652;53.132;18.026;2023-03-31T06:06:26;99781.22;;;9.19;82.65
76728;BME280;65652;53.132;18.026;2023-03-31T06:08:52;99780.23;;;9.23;82.76
76728;BME280;65652;53.132;18.026;2023-03-31T06:11:20;99776.27;;;9.28;82.84
76728;BME280;65652;53.132;18.026;2023-03-31T06:13:47;99781.88;;;9.32;82.67
76728;BME280;65652;53.132;18.026;2023-03-31T06:16:15;99782.98;;;9.37;82.65
76728;BME280;65652;53.132;18.026;2023-03-31T06:18:42;99784.94;;;9.40;82.70
76728;BME280;65652;53.132;18.026;2023-03-31T06:21:15;99782.20;;;9.45;82.48
76728;BME280;65652;53.132;18.026;2023-03-31T06:23:43;99781.06;;;9.49;82.64
76728;BME280;65652;53.132;18.026;2023-03-31T06:26:12;99775.39;;;9.53;82.23
76728;BME280;65652;53.132;18.026;2023-03-31T06:28:39;99777.84;;;9.59;82.14
76728;BME280;65652;53.132;18.026;2023-03-31T06:31:07;99774.80;;;9.63;82.20
76728;BME280;65652;53.132;18.026;2023-03-31T06:33:34;99770.06;;;9.68;82.21
76728;BME280;65652;53.132;18.026;2023-03-31T06:36:01;99770.48;;;9.72;81.99
76728;BME280;65652;53.132;18.026;2023-03-31T06:38:29;99778.03;;;9.78;82.00
76728;BME280;65652;53.132;18.026;2023-03-31T06:40:56;99767.34;;;9.84;81.88
76728;BME280;65652;53.132;18.026;2023-03-31T06:43:22;99770.12;;;9.92;82.11
76728;BME280;65652;53.132;18.026;2023-03-31T06:45:48;99765.82;;;9.99;81.77
76728;BME280;65652;53.132;18.026;2023-03-31T06:48:14;99765.04;;;10.06;81.77
76728;BME280;65652;53.132;18.026;2023-03-31T06:50:41;99760.34;;;10.11;81.46
76728;BME280;65652;53.132;18.026;2023-03-31T06:53:07;99762.52;;;10.15;81.25
76728;BME280;65652;53.132;18.026;2023-03-31T06:55:34;99762.37;;;10.21;81.38
76728;BME280;65652;53.132;18.026;2023-03-31T06:58:00;99768.39;;;10.30;81.29
76728;BME280;65652;53.132;18.026;2023-03-31T07:00:27;99766.11;;;10.35;80.89
76728;BME280;65652;53.132;18.026;2023-03-31T07:02:53;99769.27;;;10.40;80.78
76728;BME280;65652;53.132;18.026;2023-03-31T07:05:20;99763.38;;;10.44;80.78
76728;BME280;65652;53.132;18.026;2023-03-31T07:07:55;99767.30;;;10.49;80.39
76728;BME280;65652;53.132;18.026;2023-03-31T07:10:23;99764.56;;;10.52;80.43
76728;BME280;65652;53.132;18.026;2023-03-31T07:12:50;99765.33;;;10.58;80.65
76728;BME280;65652;53.132;18.026;2023-03-31T07:15:17;99768.01;;;10.63;80.03
76728;BME280;65652;53.132;18.026;2023-03-31T07:17:43;99768.50;;;10.67;79.73
76728;BME280;65652;53.132;18.026;2023-03-31T07:20:11;99773.30;;;10.72;80.24
76728;BME280;65652;53.132;18.026;2023-03-31T07:22:38;99776.45;;;10.77;79.95
76728;BME280;65652;53.132;18.026;2023-03-31T07:25:07;99774.45;;;10.81;79.91
76728;BME280;65652;53.132;18.026;2023-03-31T07:27:34;99771.55;;;10.83;79.37
76728;BME280;65652;53.132;18.026;2023-03-31T07:30:01;99766.46;;;10.84;79.31
76728;BME280;65652;53.132;18.026;2023-03-31T07:32:27;99767.10;;;10.88;79.27
76728;BME280;65652;53.132;18.026;2023-03-31T07:34:53;99765.39;;;10.91;79.26
76728;BME280;65652;53.132;18.026;2023-03-31T07:37:19;99758.50;;;10.95;79.36
76728;BME280;65652;53.132;18.026;2023-03-31T07:39:45;99755.17;;;10.99;79.03
76728;BME280;65652;53.132;18.026;2023-03-31T07:42:11;99756.55;;;11.03;78.81
76728;BME280;65652;53.132;18.026;2023-03-31T07:44:38;99754.14;;;11.06;78.96
76728;BME280;65652;53.132;18.026;2023-03-31T07:47:04;99753.52;;;11.10;78.65
76728;BME280;65652;53.132;18.026;2023-03-31T07:49:32;99748.77;;;11.15;78.87
76728;BME280;65652;53.132;18.026;2023-03-31T07:51:59;99740.01;;;11.22;78.57
76728;BME280;65652;53.132;18.026;2023-03-31T07:54:25;99740.77;;;11.32;78.36
76728;BME280;65652;53.132;18.026;2023-03-31T07:56:52;99736.32;;;11.40;77.61
76728;BME280;65652;53.132;18.026;2023-03-31T07:59:19;99734.52;;;11.46;77.18
76728;BME280;65652;53.132;18.026;2023-03-31T08:01:45;99730.13;;;11.50;77.12
76728;BME280;65652;53.132;18.026;2023-03-31T08:04:11;99722.20;;;11.55;76.89
76728;BME280;65652;53.132;18.026;2023-03-31T08:06:38;99720.13;;;11.62;76.96
76728;BME280;65652;53.132;18.026;2023-03-31T08:09:05;99716.92;;;11.68;76.30
76728;BME280;65652;53.132;18.026;2023-03-31T08:11:33;99714.62;;;11.78;76.41
76728;BME280;65652;53.132;18.026;2023-03-31T08:13:59;99713.42;;;11.87;76.11
76728;BME280;65652;53.132;18.026;2023-03-31T08:16:25;99712.84;;;11.97;75.98
76728;BME280;65652;53.132;18.026;2023-03-31T08:18:51;99707.07;;;12.07;76.31
76728;BME280;65652;53.132;18.026;2023-03-31T08:21:17;99713.48;;;12.13;75.21
76728;BME280;65652;53.132;18.026;2023-03-31T08:23:44;99707.41;;;12.15;74.96
76728;BME280;65652;53.132;18.026;2023-03-31T08:26:15;99704.07;;;12.21;75.75
76728;BME280;65652;53.132;18.026;2023-03-31T08:28:45;99700.77;;;12.30;75.20
76728;BME280;65652;53.132;18.026;2023-03-31T08:31:13;99692.81;;;12.34;74.64
76728;BME280;65652;53.132;18.026;2023-03-31T08:33:44;99684.72;;;12.38;74.27
76728;BME280;65652;53.132;18.026;2023-03-31T08:36:11;99677.34;;;12.46;74.49
76728;BME280;65652;53.132;18.026;2023-03-31T08:38:41;99680.11;;;12.58;74.61
76728;BME280;65652;53.132;18.026;2023-03-31T08:43:56;99692.25;;;12.75;73.85
76728;BME280;65652;53.132;18.026;2023-03-31T08:46:26;99693.83;;;12.80;73.82
76728;BME280;65652;53.132;18.026;2023-03-31T08:48:56;99690.30;;;12.83;73.43
76728;BME280;65652;53.132;18.026;2023-03-31T08:51:27;99686.23;;;12.84;73.31
76728;BME280;65652;53.132;18.026;2023-03-31T08:54:00;99681.95;;;12.85;73.29
76728;BME280;65652;53.132;18.026;2023-03-31T08:56:30;99689.41;;;12.86;72.56
76728;BME280;65652;53.132;18.026;2023-03-31T08:58:58;99689.95;;;12.83;72.95
76728;BME280;65652;53.132;18.026;2023-03-31T09:01:41;99686.38;;;12.83;73.34
76728;BME280;65652;53.132;18.026;2023-03-31T09:07:14;99680.51;;;12.88;72.42
76728;BME280;65652;53.132;18.026;2023-03-31T09:12:58;99674.95;;;12.98;72.80
76728;BME280;65652;53.132;18.026;2023-03-31T09:15:52;99671.70;;;13.11;72.68
76728;BME280;65652;53.132;18.026;2023-03-31T09:18:35;99671.25;;;13.21;72.08
76728;BME280;65652;53.132;18.026;2023-03-31T09:23:44;99668.52;;;13.46;71.18
76728;BME280;65652;53.132;18.026;2023-03-31T09:26:24;99677.25;;;13.60;70.98
76728;BME280;65652;53.132;18.026;2023-03-31T09:28:53;99673.42;;;13.72;70.00
76728;BME280;65652;53.132;18.026;2023-03-31T09:31:21;99669.70;;;13.82;69.53
76728;BME280;65652;53.132;18.026;2023-03-31T09:33:50;99667.44;;;13.90;69.10
76728;BME280;65652;53.132;18.026;2023-03-31T09:36:19;99666.63;;;13.98;68.81
76728;BME280;65652;53.132;18.026;2023-03-31T09:38:47;99660.66;;;14.17;68.29
76728;BME280;65652;53.132;18.026;2023-03-31T09:41:14;99654.34;;;14.56;67.92
76728;BME280;65652;53.132;18.026;2023-03-31T09:43:41;99651.36;;;14.66;67.90
76728;BME280;65652;53.132;18.026;2023-03-31T09:46:37;99646.81;;;14.90;67.33
76728;BME280;65652;53.132;18.026;2023-03-31T09:49:12;99643.55;;;15.29;66.34
76728;BME280;65652;53.132;18.026;2023-03-31T09:51:43;99643.98;;;15.34;65.68
76728;BME280;65652;53.132;18.026;2023-03-31T09:54:24;99641.00;;;15.47;65.92
76728;BME280;65652;53.132;18.026;2023-03-31T09:56:54;99646.03;;;15.49;65.13
76728;BME280;65652;53.132;18.026;2023-03-31T09:59:23;99644.55;;;15.49;63.30
76728;BME280;65652;53.132;18.026;2023-03-31T10:01:58;99639.53;;;15.48;62.92
76728;BME280;65652;53.132;18.026;2023-03-31T10:04:29;99634.66;;;15.42;63.59
76728;BME280;65652;53.132;18.026;2023-03-31T10:06:56;99634.10;;;15.63;62.95
76728;BME280;65652;53.132;18.026;2023-03-31T10:09:29;99629.98;;;15.94;62.64
76728;BME280;65652;53.132;18.026;2023-03-31T10:11:58;99626.79;;;15.97;62.49
76728;BME280;65652;53.132;18.026;2023-03-31T10:14:43;99622.84;;;16.15;61.46
76728;BME280;65652;53.132;18.026;2023-03-31T10:17:14;99618.18;;;16.19;61.33
76728;BME280;65652;53.132;18.026;2023-03-31T10:24:51;99607.67;;;15.93;62.25
76728;BME280;65652;53.132;18.026;2023-03-31T10:27:27;99605.05;;;15.86;62.44
76728;BME280;65652;53.132;18.026;2023-03-31T10:29:59;99604.41;;;15.93;62.83
76728;BME280;65652;53.132;18.026;2023-03-31T10:32:31;99603.13;;;16.05;62.43
76728;BME280;65652;53.132;18.026;2023-03-31T10:38:12;99597.23;;;15.80;61.92
76728;BME280;65652;53.132;18.026;2023-03-31T10:40:40;99598.33;;;15.67;62.51
76728;BME280;65652;53.132;18.026;2023-03-31T10:43:17;99592.73;;;15.58;62.55
76728;BME280;65652;53.132;18.026;2023-03-31T10:45:49;99590.39;;;15.46;62.74
76728;BME280;65652;53.132;18.026;2023-03-31T10:48:18;99589.69;;;15.36;63.39
76728;BME280;65652;53.132;18.026;2023-03-31T10:50:44;99589.82;;;15.38;63.27
76728;BME280;65652;53.132;18.026;2023-03-31T10:53:14;99582.30;;;15.41;62.96
76728;BME280;65652;53.132;18.026;2023-03-31T11:01:49;99577.63;;;15.33;61.94
76728;BME280;65652;53.132;18.026;2023-03-31T11:04:28;99573.38;;;15.40;62.51
76728;BME280;65652;53.132;18.026;2023-03-31T11:07:07;99575.74;;;15.55;62.10
76728;BME280;65652;53.132;18.026;2023-03-31T11:12:33;99574.11;;;15.76;61.27
76728;BME280;65652;53.132;18.026;2023-03-31T11:23:24;99544.10;;;16.76;58.80
76728;BME280;65652;53.132;18.026;2023-03-31T11:25:57;99544.46;;;17.00;57.07
76728;BME280;65652;53.132;18.026;2023-03-31T11:36:15;99537.59;;;16.85;56.89
76728;BME280;65652;53.132;18.026;2023-03-31T11:41:35;99521.37;;;16.63;57.21
76728;BME280;65652;53.132;18.026;2023-03-31T11:44:11;99512.15;;;16.73;58.08
76728;BME280;65652;53.132;18.026;2023-03-31T11:49:25;99497.44;;;17.88;56.80
76728;BME280;65652;53.132;18.026;2023-03-31T11:52:02;99494.80;;;18.26;55.39
76728;BME280;65652;53.132;18.026;2023-03-31T12:00:08;99488.27;;;17.94;53.35
76728;BME280;65652;53.132;18.026;2023-03-31T12:02:47;99487.02;;;17.81;54.12
76728;BME280;65652;53.132;18.026;2023-03-31T12:05:16;99480.55;;;17.73;54.55
76728;BME280;65652;53.132;18.026;2023-03-31T12:10:41;99480.48;;;17.60;54.26
76728;BME280;65652;53.132;18.026;2023-03-31T12:16:09;99471.70;;;17.62;54.33
76728;BME280;65652;53.132;18.026;2023-03-31T12:21:49;99458.31;;;17.38;52.95
76728;BME280;65652;53.132;18.026;2023-03-31T12:24:16;99463.89;;;17.20;53.39
76728;BME280;65652;53.132;18.026;2023-03-31T12:27:01;99464.06;;;16.99;53.31
76728;BME280;65652;53.132;18.026;2023-03-31T12:29:33;99461.64;;;16.77;54.20
76728;BME280;65652;53.132;18.026;2023-03-31T12:32:09;99458.91;;;16.61;54.64
76728;BME280;65652;53.132;18.026;2023-03-31T12:34:44;99458.52;;;16.51;54.68
76728;BME280;65652;53.132;18.026;2023-03-31T12:37:48;99454.84;;;16.42;55.06
76728;BME280;65652;53.132;18.026;2023-03-31T12:47:02;99447.45;;;16.21;55.45
76728;BME280;65652;53.132;18.026;2023-03-31T12:52:04;99443.33;;;16.16;55.31
76728;BME280;65652;53.132;18.026;2023-03-31T12:57:27;99437.23;;;16.17;55.32
76728;BME280;65652;53.132;18.026;2023-03-31T13:02:46;99429.27;;;16.09;55.11
76728;BME280;65652;53.132;18.026;2023-03-31T13:08:02;99422.48;;;15.96;55.68
76728;BME280;65652;53.132;18.026;2023-03-31T13:10:29;99418.87;;;15.92;55.91
76728;BME280;65652;53.132;18.026;2023-03-31T13:15:28;99416.77;;;15.83;56.10
76728;BME280;65652;53.132;18.026;2023-03-31T13:18:03;99409.39;;;15.79;56.24
76728;BME280;65652;53.132;18.026;2023-03-31T13:20:37;99411.68;;;15.76;56.35
76728;BME280;65652;53.132;18.026;2023-03-31T13:23:19;99404.91;;;15.72;56.42
76728;BME280;65652;53.132;18.026;2023-03-31T13:25:50;99403.95;;;15.69;56.95
76728;BME280;65652;53.132;18.026;2023-03-31T13:30:49;99400.25;;;15.68;57.24
76728;BME280;65652;53.132;18.026;2023-03-31T13:33:34;99391.58;;;15.60;57.51
76728;BME280;65652;53.132;18.026;2023-03-31T13:39:05;99381.20;;;15.48;58.08
76728;BME280;65652;53.132;18.026;2023-03-31T13:58:00;99351.08;;;16.17;57.23
76728;BME280;65652;53.132;18.026;2023-03-31T14:00:49;99344.89;;;16.50;56.79
76728;BME280;65652;53.132;18.026;2023-03-31T14:06:25;99326.55;;;17.42;55.71
76728;BME280;65652;53.132;18.026;2023-03-31T14:08:59;99323.16;;;17.87;54.93
76728;BME280;65652;53.132;18.026;2023-03-31T14:11:28;99319.64;;;18.24;54.03
76728;BME280;65652;53.132;18.026;2023-03-31T14:14:05;99313.48;;;18.42;53.68
76728;BME280;65652;53.132;18.026;2023-03-31T14:16:40;99311.11;;;18.57;53.40
76728;BME280;65652;53.132;18.026;2023-03-31T14:30:05;99296.02;;;18.86;50.62
76728;BME280;65652;53.132;18.026;2023-03-31T14:32:55;99294.44;;;18.51;51.40
76728;BME280;65652;53.132;18.026;2023-03-31T14:35:42;99290.99;;;18.27;51.83
76728;BME280;65652;53.132;18.026;2023-03-31T14:38:16;99287.17;;;18.01;51.58
76728;BME280;65652;53.132;18.026;2023-03-31T14:40:47;99284.14;;;17.82;52.31
76728;BME280;65652;53.132;18.026;2023-03-31T14:43:27;99283.06;;;17.72;52.48
76728;BME280;65652;53.132;18.026;2023-03-31T14:46:20;99280.80;;;17.61;52.44
76728;BME280;65652;53.132;18.026;2023-03-31T14:48:49;99281.22;;;17.49;52.10
76728;BME280;65652;53.132;18.026;2023-03-31T14:51:36;99272.52;;;17.25;51.90
76728;BME280;65652;53.132;18.026;2023-03-31T14:54:14;99275.34;;;16.94;52.74
76728;BME280;65652;53.132;18.026;2023-03-31T14:56:41;99273.86;;;16.80;53.59
76728;BME280;65652;53.132;18.026;2023-03-31T14:59:08;99269.15;;;16.67;53.27
76728;BME280;65652;53.132;18.026;2023-03-31T15:01:35;99270.39;;;16.42;53.69
76728;BME280;65652;53.132;18.026;2023-03-31T15:04:11;99272.13;;;16.23;54.47
76728;BME280;65652;53.132;18.026;2023-03-31T15:06:44;99280.19;;;16.05;55.69
76728;BME280;65652;53.132;18.026;2023-03-31T15:09:22;99287.58;;;15.80;57.18
76728;BME280;65652;53.132;18.026;2023-03-31T15:11:55;99288.19;;;15.50;57.92
76728;BME280;65652;53.132;18.026;2023-03-31T15:14:23;99285.48;;;15.30;58.44
76728;BME280;65652;53.132;18.026;2023-03-31T15:16:53;99284.77;;;15.15;58.90
76728;BME280;65652;53.132;18.026;2023-03-31T15:19:23;99278.61;;;15.02;59.91
76728;BME280;65652;53.132;18.026;2023-03-31T15:22:07;99278.59;;;14.87;60.63
76728;BME280;65652;53.132;18.026;2023-03-31T15:24:35;99273.68;;;14.73;61.08
76728;BME280;65652;53.132;18.026;2023-03-31T15:27:05;99268.48;;;14.76;61.58
76728;BME280;65652;53.132;18.026;2023-03-31T15:29:43;99265.52;;;14.79;62.09
76728;BME280;65652;53.132;18.026;2023-03-31T15:32:24;99269.02;;;14.76;62.47
76728;BME280;65652;53.132;18.026;2023-03-31T15:34:52;99267.00;;;14.74;62.76
76728;BME280;65652;53.132;18.026;2023-03-31T15:37:30;99269.35;;;14.70;62.85
76728;BME280;65652;53.132;18.026;2023-03-31T15:40:02;99267.94;;;14.63;63.02
76728;BME280;65652;53.132;18.026;2023-03-31T15:42:34;99266.44;;;14.65;62.87
76728;BME280;65652;53.132;18.026;2023-03-31T15:45:34;99263.05;;;14.66;62.78
76728;BME280;65652;53.132;18.026;2023-03-31T15:48:02;99259.19;;;14.73;62.50